Terminal Aerodrome Forecast
Issued by NWS

Home | Current Version | Previous Version | Graphics & Text | Print | Product List | Glossary On
Versions: 1 2 3 4 5 6 7 8 9 10 11 12 13 14 15 16 17 18 19
000
FTUS43 KOAX 261855 AAA
TAFCDR
TAF AMD
KCDR 261855Z 2619/2718 16008KT 3SM -RA BR SCT007 OVC012
     FM262000 12010KT 5SM -RA BR SCT008 OVC015
     FM270100 10007KT 6SM BR SCT007 OVC020
     FM270600 VRB03KT 1SM BR SCT002 OVC007
     FM270800 VRB03KT 1/2SM FG VV002
     FM271500 VRB03KT 3SM BR SCT002 OVC015=

USA.gov is the U.S. government's official web portal to all federal, state and local government web resources and services.